EDHI/XFW METAR and TAF weather

Enter ICAO airport designator
Station Type Date Time Source
EDHI METAR 2019/08/22 09:50 UTC NOAA

EDHI 220950Z 20007KT 150V230 CAVOK 23/09 Q1025


Station Type Date Time Source
EDHI Decoded METAR 2019/08/22 09:50 UTC NOAA

Station name not available
Aug 22, 2019 - 05:50 AM EDT / 2019.08.22 0950 UTC
Wind: from the SSW (200 degrees) at 8 MPH (7 KT) (direction variable):0
Visibility: greater than 7 mile(s):0
Temperature: 73 F (23 C)
Dew Point: 48 F (9 C)
Relative Humidity: 40%
Pressure (altimeter): 30.27 in. Hg (1025 hPa)
ob: EDHI 220950Z 20007KT 150V230 CAVOK 23/09 Q1025
cycle: 10

Station Type Date Time Source
EDHI TAF 2010/02/22 14:20 UTC NOAA

METAR EDHI 221420Z 17005KT 9999 BKN030 05/02 Q0989

Example: see airport list